createdAt,value
2024-03-07T00:00:16.968Z,101584.66
2024-03-07T00:10:18.840Z,101584.42
2024-03-07T00:20:21.704Z,101573.08
2024-03-07T00:30:23.581Z,101576.77
2024-03-07T00:40:25.447Z,101571.95
2024-03-07T00:50:27.349Z,101575.70
2024-03-07T01:00:29.512Z,101581.02
2024-03-07T01:10:31.449Z,101583.16
2024-03-07T01:20:33.400Z,101589.39
2024-03-07T01:30:35.162Z,101586.40
2024-03-07T01:40:36.906Z,101580.25
2024-03-07T01:50:41.512Z,101573.33
2024-03-07T02:00:45.147Z,101577.80
2024-03-07T02:10:47.466Z,101574.14
2024-03-07T02:20:49.805Z,101575.61
2024-03-07T02:30:51.625Z,101582.32
2024-03-07T02:40:53.497Z,101579.85
2024-03-07T02:50:55.309Z,101588.39
2024-03-07T03:01:01.128Z,101587.41
2024-03-07T03:11:02.981Z,101583.69
2024-03-07T03:21:04.946Z,101583.54
2024-03-07T03:31:06.790Z,101587.08
2024-03-07T03:41:08.586Z,101590.29
2024-03-07T03:51:10.867Z,101596.66
2024-03-07T04:01:16.028Z,101594.03
2024-03-07T04:11:18.262Z,101594.58
2024-03-07T04:21:20.410Z,101591.87
2024-03-07T04:31:22.014Z,101590.98
2024-03-07T04:41:24.707Z,101591.42
2024-03-07T04:51:26.736Z,101594.34
2024-03-07T05:01:28.316Z,101596.14
2024-03-07T05:11:33.880Z,101606.45
2024-03-07T05:21:39.472Z,101605.95
2024-03-07T05:31:52.097Z,101616.07
2024-03-07T05:41:55.741Z,101620.80
2024-03-07T05:51:59.399Z,101619.80
2024-03-07T06:02:01.192Z,101619.45
2024-03-07T06:12:10.148Z,101626.37
2024-03-07T06:22:18.564Z,101630.80
2024-03-07T06:32:20.471Z,101633.96
2024-03-07T06:42:23.100Z,101638.33
2024-03-07T06:52:24.933Z,101644.20
2024-03-07T07:02:28.888Z,101647.42
2024-03-07T07:12:30.815Z,101647.38
2024-03-07T07:22:35.859Z,101645.84
2024-03-07T07:32:38.031Z,101646.24
2024-03-07T07:42:40.898Z,101649.52
2024-03-07T07:52:51.495Z,101651.46
2024-03-07T08:03:02.698Z,101649.08
2024-03-07T08:13:11.480Z,101648.36
2024-03-07T08:23:14.311Z,101647.52
2024-03-07T08:33:16.289Z,101646.37
2024-03-07T08:43:18.104Z,101648.75
2024-03-07T08:53:20.052Z,101650.14
2024-03-07T09:03:23.032Z,101640.91
2024-03-07T09:13:25.515Z,101646.34
2024-03-07T09:23:27.272Z,101645.55
2024-03-07T09:33:29.500Z,101645.09
2024-03-07T09:43:34.230Z,101650.44
2024-03-07T09:53:38.319Z,101647.13
2024-03-07T10:03:46.086Z,101645.70
2024-03-07T10:13:50.410Z,101646.89
2024-03-07T10:24:06.750Z,101637.73
2024-03-07T10:34:09.321Z,101630.86
2024-03-07T10:44:17.073Z,101631.95
2024-03-07T10:54:35.679Z,101623.50
2024-03-07T11:04:38.122Z,101619.10
2024-03-07T11:14:41.649Z,101624.36
2024-03-07T11:24:44.193Z,101618.74
2024-03-07T11:34:49.273Z,101610.05
2024-03-07T11:44:52.667Z,101603.92
2024-03-07T11:54:54.809Z,101596.04
2024-03-07T12:04:56.649Z,101588.94
2024-03-07T12:14:58.767Z,101579.37
2024-03-07T12:25:10.052Z,101575.79
2024-03-07T12:35:13.767Z,101573.71
2024-03-07T12:45:21.345Z,101571.00
2024-03-07T12:55:23.232Z,101565.09
2024-03-07T13:05:25.808Z,101563.16
2024-03-07T13:15:27.581Z,101557.35
2024-03-07T13:25:34.280Z,101554.05
2024-03-07T13:35:37.305Z,101547.70
2024-03-07T13:45:44.974Z,101542.54
2024-03-07T13:55:55.544Z,101542.11
2024-03-07T14:06:00.309Z,101539.14
2024-03-07T14:16:24.974Z,101535.03
2024-03-07T14:27:04.962Z,101527.36
2024-03-07T14:37:24.967Z,101523.25
2024-03-07T14:47:27.137Z,101524.95
2024-03-07T14:57:28.957Z,101519.63
2024-03-07T15:07:30.689Z,101514.48
2024-03-07T15:17:32.500Z,101500.58
2024-03-07T15:27:40.698Z,101500.91
2024-03-07T15:37:42.687Z,101494.85
2024-03-07T15:47:50.355Z,101491.15
2024-03-07T15:57:54.772Z,101491.84
2024-03-07T16:07:57.831Z,101497.93
2024-03-07T16:18:00.730Z,101498.38
2024-03-07T16:28:02.999Z,101505.12
2024-03-07T16:38:05.443Z,101512.20
2024-03-07T16:48:13.727Z,101518.24
2024-03-07T16:58:17.370Z,101520.85
2024-03-07T17:08:22.042Z,101526.25
2024-03-07T17:18:26.085Z,101529.88
2024-03-07T17:28:30.310Z,101534.97
2024-03-07T17:38:34.421Z,101530.52
2024-03-07T17:48:37.737Z,101533.11
2024-03-07T17:58:39.868Z,101530.98
2024-03-07T18:08:46.014Z,101526.60
2024-03-07T18:18:55.726Z,101531.18
2024-03-07T18:28:57.539Z,101529.09
2024-03-07T18:38:59.349Z,101535.44
2024-03-07T18:49:01.181Z,101542.88
2024-03-07T18:59:09.180Z,101541.64
2024-03-07T19:09:14.008Z,101542.98
2024-03-07T19:19:18.317Z,101543.81
2024-03-07T19:29:22.279Z,101539.43
2024-03-07T19:39:24.841Z,101545.71
2024-03-07T19:49:29.260Z,101547.38
2024-03-07T19:59:31.057Z,101540.44
2024-03-07T20:09:32.761Z,101541.48
2024-03-07T20:19:34.981Z,101536.68
2024-03-07T20:29:36.823Z,101538.77
2024-03-07T20:39:41.963Z,101536.50
2024-03-07T20:49:47.304Z,101531.69
2024-03-07T20:59:49.012Z,101533.16
2024-03-07T21:09:50.776Z,101540.52
2024-03-07T21:19:53.011Z,101535.92
2024-03-07T21:29:54.902Z,101532.86
2024-03-07T21:39:57.672Z,101535.48
2024-03-07T21:49:59.759Z,101529.26
2024-03-07T22:00:01.619Z,101526.25
2024-03-07T22:10:12.981Z,101526.33
2024-03-07T22:20:20.137Z,101527.11
2024-03-07T22:30:23.282Z,101523.77
2024-03-07T22:40:28.974Z,101523.48
2024-03-07T22:50:31.879Z,101520.85
2024-03-07T23:00:34.009Z,101524.67
2024-03-07T23:10:36.119Z,101521.84
2024-03-07T23:20:38.720Z,101520.58
2024-03-07T23:30:40.597Z,101520.05
